Map

Track Data

SID SEASON NUMBER BASIN SUBBASIN NAME ISO_TIME NATURE LAT LON WMO_WIND WMO_PRES WMO_AGENCY TRACK_TYPE DIST2LAND LANDFALL IFLAG USA_AGENCY USA_ATCF_ID USA_LAT USA_LON USA_RECORD USA_STATUS USA_WIND USA_PRES USA_SSHS USA_R34_NE USA_R34_SE USA_R34_SW USA_R34_NW USA_R50_NE USA_R50_SE USA_R50_SW USA_R50_NW USA_R64_NE USA_R64_SE USA_R64_SW USA_R64_NW USA_POCI USA_ROCI USA_RMW USA_EYE TOKYO_LAT TOKYO_LON TOKYO_GRADE TOKYO_WIND TOKYO_PRES TOKYO_R50_DIR TOKYO_R50_LONG TOKYO_R50_SHORT TOKYO_R30_DIR TOKYO_R30_LONG TOKYO_R30_SHORT TOKYO_LAND CMA_LAT CMA_LON CMA_CAT CMA_WIND CMA_PRES HKO_LAT HKO_LON HKO_CAT HKO_WIND HKO_PRES NEWDELHI_LAT NEWDELHI_LON NEWDELHI_GRADE NEWDELHI_WIND NEWDELHI_PRES NEWDELHI_CI NEWDELHI_DP NEWDELHI_POCI REUNION_LAT REUNION_LON REUNION_TYPE REUNION_WIND REUNION_PRES REUNION_TNUM REUNION_CI REUNION_RMW REUNION_R34_NE REUNION_R34_SE REUNION_R34_SW REUNION_R34_NW REUNION_R50_NE REUNION_R50_SE REUNION_R50_SW REUNION_R50_NW REUNION_R64_NE REUNION_R64_SE REUNION_R64_SW REUNION_R64_NW BOM_LAT BOM_LON BOM_TYPE BOM_WIND BOM_PRES BOM_TNUM BOM_CI BOM_RMW BOM_R34_NE BOM_R34_SE BOM_R34_SW BOM_R34_NW BOM_R50_NE BOM_R50_SE BOM_R50_SW BOM_R50_NW BOM_R64_NE BOM_R64_SE BOM_R64_SW BOM_R64_NW BOM_ROCI BOM_POCI BOM_EYE BOM_POS_METHOD BOM_PRES_METHOD NADI_LAT NADI_LON NADI_CAT NADI_WIND NADI_PRES WELLINGTON_LAT WELLINGTON_LON WELLINGTON_WIND WELLINGTON_PRES DS824_LAT DS824_LON DS824_STAGE DS824_WIND DS824_PRES TD9636_LAT TD9636_LON TD9636_STAGE TD9636_WIND TD9636_PRES TD9635_LAT TD9635_LON TD9635_WIND TD9635_PRES TD9635_ROCI NEUMANN_LAT NEUMANN_LON NEUMANN_CLASS NEUMANN_WIND NEUMANN_PRES MLC_LAT MLC_LON MLC_CLASS MLC_WIND MLC_PRES USA_GUST BOM_GUST BOM_GUST_PER REUNION_GUST REUNION_GUST_PER USA_SEAHGT USA_SEARAD_NE USA_SEARAD_SE USA_SEARAD_SW USA_SEARAD_NW STORM_SPEED STORM_DIR
1985210N14257 1985 59 EP MM KEVIN 1985-07-29 00:00:00 TS 13.8000 -102.600 25 hurdat_epa main 423 421 O_________O___ hurdat_epa EP111985 13.8000 -102.600 TD 25 -1 13.8000 -102.600 1 25 8 285
1985210N14257 1985 59 EP MM KEVIN 1985-07-29 03:00:00 TS 13.9014 -102.999 main 431 431 P_________P___ EP111985 13.9002 -103.002 TD 27 -1 13.9051 -102.987 1 26 8 285
1985210N14257 1985 59 EP MM KEVIN 1985-07-29 06:00:00 TS 14.0020 -103.395 30 hurdat_epa main 443 443 O_________P___ hurdat_epa EP111985 14.0000 -103.400 TD 30 -1 14.0079 -103.380 1 27 8 285
1985210N14257 1985 59 EP MM KEVIN 1985-07-29 09:00:00 TS 14.1016 -103.790 main 454 450 P_________P___ EP111985 14.0999 -103.793 TD 30 -1 14.1068 -103.782 1 28 8 284
1985210N14257 1985 59 EP MM KEVIN 1985-07-29 12:00:00 TS 14.2000 -104.200 30 hurdat_epa main 458 454 O_________O___ hurdat_epa EP111985 14.2000 -104.200 TD 30 -1 14.2000 -104.200 1 30 9 284
1985210N14257 1985 59 EP MM KEVIN 1985-07-29 15:00:00 TS 14.3021 -104.641 main 461 461 P_________P___ EP111985 14.3075 -104.642 TD 32 -1 14.2861 -104.636 1 31 9 282
1985210N14257 1985 59 EP MM KEVIN 1985-07-29 18:00:00 TS 14.3912 -105.096 35 hurdat_epa main 468 468 O_________P___ hurdat_epa EP111985 14.4000 -105.100 TS 35 0 14.3648 -105.085 1 32 9 280
1985210N14257 1985 59 EP MM KEVIN 1985-07-29 21:00:00 TS 14.4521 -105.554 main 480 480 P_________P___ EP111985 14.4575 -105.558 TS 35 0 14.4361 -105.542 1 33 9 277
1985210N14257 1985 59 EP MM KEVIN 1985-07-30 00:00:00 TS 14.5000 -106.000 35 hurdat_epa main 501 501 O_________O___ hurdat_epa EP111985 14.5000 -106.000 TS 35 0 14.5000 -106.000 2 35 8 277
1985210N14257 1985 59 EP MM KEVIN 1985-07-30 03:00:00 TS 14.5485 -106.406 main 525 516 P_________P___ EP111985 14.5498 -106.393 TS 35 0 14.5447 -106.446 2 35 8 277
1985210N14257 1985 59 EP MM KEVIN 1985-07-30 06:00:00 TS 14.5961 -106.823 35 hurdat_epa main 543 543 O_________P___ hurdat_epa EP111985 14.6000 -106.800 TS 35 0 14.5846 -106.893 2 35 9 276
1985210N14257 1985 59 EP MM KEVIN 1985-07-30 09:00:00 TS 14.6399 -107.300 main 579 574 P_________P___ EP111985 14.6425 -107.285 TS 35 0 14.6322 -107.343 2 35 10 276
1985210N14257 1985 59 EP MM KEVIN 1985-07-30 12:00:00 TS 14.7000 -107.800 35 hurdat_epa main 596 596 O_________O___ hurdat_epa EP111985 14.7000 -107.800 TS 35 0 14.7000 -107.800 2 35 10 279
1985210N14257 1985 59 EP MM KEVIN 1985-07-30 15:00:00 TS 14.7896 -108.304 main 617 617 P_________P___ EP111985 14.7849 -108.308 TS 37 0 14.8035 -108.292 2 36 10 282
1985210N14257 1985 59 EP MM KEVIN 1985-07-30 18:00:00 TS 14.9069 -108.797 40 hurdat_epa main 642 642 O_________P___ hurdat_epa EP111985 14.9000 -108.800 TS 40 0 14.9277 -108.787 2 37 10 285
1985210N14257 1985 59 EP MM KEVIN 1985-07-30 21:00:00 TS 15.0476 -109.270 main 670 662 P_________P___ EP111985 15.0424 -109.272 TS 40 0 15.0630 -109.264 2 38 9 289
1985210N14257 1985 59 EP MM KEVIN 1985-07-31 00:00:00 TS 15.2000 -109.700 40 hurdat_epa main 685 685 O_________O___ hurdat_epa EP111985 15.2000 -109.700 TS 40 0 15.2000 -109.700 2 40 8 291
1985210N14257 1985 59 EP MM KEVIN 1985-07-31 03:00:00 TS 15.3471 -110.073 main 708 700 P_________P___ EP111985 15.3574 -110.073 TS 42 0 15.3164 -110.072 2 41 7 293
1985210N14257 1985 59 EP MM KEVIN 1985-07-31 06:00:00 TS 15.4836 -110.401 45 hurdat_epa main 716 716 O_________P___ hurdat_epa EP111985 15.5000 -110.400 TS 45 0 15.4344 -110.403 2 42 7 292
1985210N14257 1985 59 EP MM KEVIN 1985-07-31 09:00:00 TS 15.5900 -110.707 main 733 733 P_________P___ EP111985 15.5999 -110.708 TS 45 0 15.5602 -110.707 2 43 6 291
1985210N14257 1985 59 EP MM KEVIN 1985-07-31 12:00:00 TS 15.7000 -111.000 45 hurdat_epa main 751 751 O_________O___ hurdat_epa EP111985 15.7000 -111.000 TS 45 0 15.7000 -111.000 2 45 6 294
1985210N14257 1985 59 EP MM KEVIN 1985-07-31 15:00:00 TS 15.8393 -111.300 main 770 764 P_________P___ EP111985 15.8350 -111.300 TS 45 0 15.8522 -111.299 2 45 7 298
1985210N14257 1985 59 EP MM KEVIN 1985-07-31 18:00:00 TS 16.0049 -111.598 45 hurdat_epa main 784 772 O_________P___ hurdat_epa EP111985 16.0000 -111.600 TS 45 0 16.0196 -111.593 2 45 7 302
1985210N14257 1985 59 EP MM KEVIN 1985-07-31 21:00:00 TS 16.1949 -111.892 main 775 759 P_________P___ EP111985 16.1924 -111.893 TS 45 0 16.2022 -111.890 2 45 7 304
1985210N14257 1985 59 EP MM KEVIN 1985-08-01 00:00:00 TS 16.4000 -112.200 45 hurdat_epa main 762 751 O_________O___ hurdat_epa EP111985 16.4000 -112.200 TS 45 0 16.4000 -112.200 2 45 7 303
1985210N14257 1985 59 EP MM KEVIN 1985-08-01 03:00:00 TS 16.5970 -112.542 main 751 742 P_________P___ EP111985 16.5925 -112.543 TS 45 0 16.6106 -112.540 2 45 8 301
1985210N14257 1985 59 EP MM KEVIN 1985-08-01 06:00:00 TS 16.8087 -112.898 45 hurdat_epa main 746 735 O_________P___ hurdat_epa EP111985 16.8000 -112.900 TS 45 0 16.8350 -112.893 2 45 8 304
1985210N14257 1985 59 EP MM KEVIN 1985-08-01 09:00:00 TS 17.0542 -113.250 main 729 725 P_________P___ EP111985 17.0499 -113.250 TS 45 0 17.0669 -113.249 2 45 8 306
1985210N14257 1985 59 EP MM KEVIN 1985-08-01 12:00:00 TS 17.3000 -113.600 45 hurdat_epa main 730 726 O_________O___ hurdat_epa EP111985 17.3000 -113.600 TS 45 0 17.3000 -113.600 2 45 8 304
1985210N14257 1985 59 EP MM KEVIN 1985-08-01 15:00:00 TS 17.5062 -113.952 main 734 724 P_________P___ EP111985 17.5000 -113.958 TS 45 0 17.5248 -113.936 2 45 8 302
1985210N14257 1985 59 EP MM KEVIN 1985-08-01 18:00:00 TS 17.7124 -114.291 45 hurdat_epa main 734 729 O_________P___ hurdat_epa EP111985 17.7000 -114.300 TS 45 0 17.7498 -114.265 2 45 8 306
1985210N14257 1985 59 EP MM KEVIN 1985-08-01 21:00:00 TS 17.9505 -114.597 main 727 725 P_________P___ EP111985 17.9424 -114.600 TS 45 0 17.9748 -114.586 2 45 8 310
1985210N14257 1985 59 EP MM KEVIN 1985-08-02 00:00:00 TS 18.2000 -114.900 45 hurdat_epa main 732 731 O_________O___ hurdat_epa EP111985 18.2000 -114.900 TS 45 0 18.2000 -114.900 2 45 8 309
1985210N14257 1985 59 EP MM KEVIN 1985-08-02 03:00:00 TS 18.4503 -115.242 main 731 731 P_________P___ EP111985 18.4575 -115.257 TS 45 0 18.4287 -115.195 2 45 8 308
1985210N14257 1985 59 EP MM KEVIN 1985-08-02 06:00:00 TS 18.6893 -115.571 45 hurdat_epa main 747 740 O_________P___ hurdat_epa EP111985 18.7000 -115.600 TS 45 0 18.6570 -115.485 2 45 7 309
1985210N14257 1985 59 EP MM KEVIN 1985-08-02 09:00:00 TS 18.9009 -115.828 main 750 743 P_________P___ EP111985 18.9073 -115.843 TS 45 0 18.8818 -115.783 2 45 6 309
1985210N14257 1985 59 EP MM KEVIN 1985-08-02 12:00:00 TS 19.1000 -116.100 45 hurdat_epa main 749 746 O_________O___ hurdat_epa EP111985 19.1000 -116.100 TS 45 0 19.1000 -116.100 2 45 7 304
1985210N14257 1985 59 EP MM KEVIN 1985-08-02 15:00:00 TS 19.3069 -116.475 main 754 752 P_________P___ EP111985 19.3001 -116.485 TS 47 0 19.3273 -116.445 2 47 8 299
1985210N14257 1985 59 EP MM KEVIN 1985-08-02 18:00:00 TS 19.5112 -116.878 50 hurdat_epa main 762 759 O_________P___ hurdat_epa EP111985 19.5000 -116.900 TS 50 0 19.5447 -116.812 2 50 8 300
1985210N14257 1985 59 EP MM KEVIN 1985-08-02 21:00:00 TS 19.7267 -117.237 main 766 765 P_________P___ EP111985 19.7223 -117.250 TS 52 0 19.7398 -117.198 2 52 8 300
1985210N14257 1985 59 EP MM KEVIN 1985-08-03 00:00:00 TS 19.9000 -117.600 55 hurdat_epa main 779 779 O_________O___ hurdat_epa EP111985 19.9000 -117.600 TS 55 0 19.9000 -117.600 2 55 8 289
1985210N14257 1985 59 EP MM KEVIN 1985-08-03 03:00:00 TS 19.9763 -117.990 main 801 801 P_________P___ EP111985 19.9649 -117.985 TS 55 0 20.0107 -118.003 2 53 8 279
1985210N14257 1985 59 EP MM KEVIN 1985-08-03 06:00:00 TS 20.0218 -118.405 55 hurdat_epa main 832 832 O_________P___ hurdat_epa EP111985 20.0000 -118.400 TS 55 0 20.0871 -118.421 2 52 8 279
1985210N14257 1985 59 EP MM KEVIN 1985-08-03 09:00:00 TS 20.1055 -118.840 main 857 857 P_________P___ EP111985 20.0924 -118.835 TS 52 0 20.1450 -118.853 2 51 9 282
1985210N14257 1985 59 EP MM KEVIN 1985-08-03 12:00:00 TS 20.2000 -119.300 50 hurdat_epa main 891 891 O_________O___ hurdat_epa EP111985 20.2000 -119.300 TS 50 0 20.2000 -119.300 2 50 9 282
1985210N14257 1985 59 EP MM KEVIN 1985-08-03 15:00:00 TS 20.3003 -119.790 main 927 927 P_________P___ EP111985 20.3075 -119.800 TS 47 0 20.2789 -119.761 2 48 9 282
1985210N14257 1985 59 EP MM KEVIN 1985-08-03 18:00:00 TS 20.3893 -120.284 45 hurdat_epa main 965 965 O_________P___ hurdat_epa EP111985 20.4000 -120.300 TS 45 0 20.3572 -120.235 2 47 9 279
1985210N14257 1985 59 EP MM KEVIN 1985-08-03 21:00:00 TS 20.4510 -120.753 main 991 991 P_________P___ EP111985 20.4574 -120.765 TS 45 0 20.4319 -120.717 2 46 9 277
1985210N14257 1985 59 EP MM KEVIN 1985-08-04 00:00:00 TS 20.5000 -121.200 45 hurdat_epa main 1018 1018 O_________O___ hurdat_epa EP111985 20.5000 -121.200 TS 45 0 20.5000 -121.200 2 45 8 277
1985210N14257 1985 59 EP MM KEVIN 1985-08-04 03:00:00 TS 20.5504 -121.605 main 1037 1037 P_________P___ EP111985 20.5497 -121.585 TS 45 0 20.5525 -121.663 2 45 8 277
1985210N14257 1985 59 EP MM KEVIN 1985-08-04 06:00:00 TS 20.5998 -122.032 45 hurdat_epa main 1064 1064 O_________P___ hurdat_epa EP111985 20.6000 -122.000 TS 45 0 20.5991 -122.128 2 45 9 276
1985210N14257 1985 59 EP MM KEVIN 1985-08-04 09:00:00 TS 20.6490 -122.541 main 1098 1097 P_________P___ EP111985 20.6499 -122.520 TS 45 0 20.6462 -122.604 2 45 10 276
1985210N14257 1985 59 EP MM KEVIN 1985-08-04 12:00:00 TS 20.7000 -123.100 45 hurdat_epa main 1133 1133 O_________O___ hurdat_epa EP111985 20.7000 -123.100 TS 45 0 20.7000 -123.100 2 45 11 275
1985210N14257 1985 59 EP MM KEVIN 1985-08-04 15:00:00 TS 20.7488 -123.687 main 1178 1170 P_________P___ EP111985 20.7425 -123.708 TS 50 0 20.7675 -123.624 2 47 11 276
1985210N14257 1985 59 EP MM KEVIN 1985-08-04 18:00:00 TS 20.8105 -124.268 55 hurdat_epa main 1216 1216 O_________P___ hurdat_epa EP111985 20.8000 -124.300 TS 55 0 20.8421 -124.170 2 50 10 278
1985210N14257 1985 59 EP MM KEVIN 1985-08-04 21:00:00 TS 20.8992 -124.783 main 1249 1249 P_________P___ EP111985 20.8921 -124.800 TS 55 0 20.9206 -124.731 2 52 10 281
1985210N14257 1985 59 EP MM KEVIN 1985-08-05 00:00:00 TS 21.0000 -125.300 55 hurdat_epa main 1282 1282 O_________O___ hurdat_epa EP111985 21.0000 -125.300 TS 55 0 21.0000 -125.300 2 55 10 281
1985210N14257 1985 59 EP MM KEVIN 1985-08-05 03:00:00 TS 21.1003 -125.885 main 1325 1325 P_________P___ EP111985 21.1075 -125.892 TS 55 0 21.0785 -125.864 2 55 11 280
1985210N14257 1985 59 EP MM KEVIN 1985-08-05 06:00:00 TS 21.1892 -126.484 55 hurdat_epa main 1370 1370 O_________P___ hurdat_epa EP111985 21.2000 -126.500 TS 55 0 21.1567 -126.435 2 55 11 278
1985210N14257 1985 59 EP MM KEVIN 1985-08-05 09:00:00 TS 21.2508 -127.041 main 1407 1407 P_________P___ EP111985 21.2572 -127.050 TS 55 0 21.2316 -127.014 2 55 10 276
1985210N14257 1985 59 EP MM KEVIN 1985-08-05 12:00:00 TS 21.3000 -127.600 55 hurdat_epa main 1459 1459 O_________O___ hurdat_epa EP111985 21.3000 -127.600 TS 55 0 21.3000 -127.600 2 55 11 275
1985210N14257 1985 59 EP MM KEVIN 1985-08-05 15:00:00 TS 21.3536 -128.192 main 1507 1507 P_________P___ EP111985 21.3499 -128.193 TS 52 0 21.3647 -128.189 2 51 11 275
1985210N14257 1985 59 EP MM KEVIN 1985-08-05 18:00:00 TS 21.4054 -128.796 50 hurdat_epa main 1560 1560 O_________P___ hurdat_epa EP111985 21.4000 -128.800 TS 50 0 21.4216 -128.785 2 47 11 275
1985210N14257 1985 59 EP MM KEVIN 1985-08-05 21:00:00 TS 21.4543 -129.397 main 1609 1609 P_________P___ EP111985 21.4498 -129.400 TS 45 0 21.4678 -129.389 2 43 11 275
1985210N14257 1985 59 EP MM KEVIN 1985-08-06 00:00:00 TS 21.5000 -130.000 40 hurdat_epa main 1664 1664 O_________O___ hurdat_epa EP111985 21.5000 -130.000 TS 40 0 21.5000 -130.000 2 40 11 275
1985210N14257 1985 59 EP MM KEVIN 1985-08-06 03:00:00 TS 21.5518 -130.600 main 1714 1714 P_________P___ EP111985 21.5647 -130.592 TS 35 0 21.5133 -130.624 2 37 11 274
1985210N14257 1985 59 EP MM KEVIN 1985-08-06 06:00:00 TS 21.5783 -131.213 30 hurdat_epa main 1770 1770 O_________P___ hurdat_epa EP111985 21.6000 -131.200 TD 30 -1 21.5132 -131.254 2 35 12 270
1985210N14257 1985 59 EP MM KEVIN 1985-08-06 09:00:00 TS 21.5447 -131.858 main 1820 1820 P_________P___ EP111985 21.5574 -131.850 TD 30 -1 21.5065 -131.882 2 32 12 266
1985210N14257 1985 59 EP MM KEVIN 1985-08-06 12:00:00 TS 21.5000 -132.500 30 hurdat_epa main 1857 1857 O_________O___ hurdat_epa EP111985 21.5000 -132.500 TD 30 -1 21.5000 -132.500 1 30 12 267
1985210N14257 1985 59 EP MM KEVIN 1985-08-06 15:00:00 TS 21.4887 -133.110 main 1894 1894 P_________P___ EP111985 21.4853 -133.112 TD 27 -1 21.4987 -133.104 1 27 11 270
1985210N14257 1985 59 EP MM KEVIN 1985-08-06 18:00:00 TS 21.5000 -133.700 25 hurdat_epa main 1933 O_________O___ hurdat_epa EP111985 21.5000 -133.700 TD 25 -1 21.5000 -133.700 1 25 11 271

About IBTrACS Database

This database is a web-friendly format of International Best Track Archive for Climate Stewardship (IBTrACS), a global best track data archive curated by NOAA dating back to 1842.

Updated: 2021-12-06